• Join FlightAware (Why Join?)
  • Login
  • US Flag 
06:57AM EDT


 

Airport Tracker/Info


-or-


 

Live Flight TrackerFlight Track Log ✈ AWE3202 ✈ 08-May-2013 ✈ KDCA - KMHT

Flight Track Log - Related Links

Times and Time Zones

All times are in EDT time to prevent confusion due to time zone crossing. See the AWE3202 flight status page for this flight to view local times or setup timezone preferences in your user account.

Time Position Orientation Groundspeed Altitude Reporting Facility
EDT Latitude Longitude Course Direction KTS MPH feet Rate Location/Type
11:11PM 38.7667 -77.0333 180° South 226 260 3,100  Level Potomac TRACON
11:12PM 38.9685 -76.6796 57° Northeast  Level FlightAware Approximate
11:12PM 38.7333 -76.9500 117° Southeast 280 322 6,600  Level Potomac TRACON
11:13PM 39.0176 -76.5638 67° East  Level FlightAware Approximate
11:13PM 38.7833 -76.8833 46° Northeast 296 341 9,600  Level Potomac TRACON
11:14PM 39.0622 -76.4445 63° Northeast  Level FlightAware Approximate
11:14PM 38.8667 -76.8500 17° North 336 387 11,400  Level Potomac TRACON
11:15PM 39.1117 -76.3283 61° Northeast  Level FlightAware Approximate
11:15PM 38.9333 -76.7500 49° Northeast 378 435 13,100  Level Potomac TRACON
11:18PM 39.0436 -76.4761 63° Northeast 382 440 17,300 1,680 Climbing Washington Center
11:19PM 39.0964 -76.3486 62° Northeast 390 449 18,800 1,560 Climbing Washington Center
11:20PM 39.1472 -76.2153 64° Northeast 396 456 20,400 1,440 Climbing Washington Center
11:21PM 39.1731 -76.0656 77° East 408 470 21,700 1,200 Climbing Washington Center
11:22PM 39.1900 -75.9131 82° East 418 481 22,900 900 Climbing Washington Center
11:23PM 39.2653 -75.7872 52° Northeast 418 481 23,600 1,200 Climbing Washington Center
11:24PM 39.3572 -75.6694 45° Northeast 432 497 25,300 1,500 Climbing Washington Center
11:25PM 39.4469 -75.5539 45° Northeast 438 504 26,700 1,440 Climbing Washington Center
11:26PM 39.5364 -75.4356 46° Northeast 449 517 28,300 960 Climbing Washington Center
11:27PM 39.7003 -75.2175 46° Northeast 467 537 29,500 660 Climbing New York Center
11:28PM 39.7975 -75.0750 48° Northeast 474 545 30,200 660 Climbing New York Center
11:29PM 39.8853 -74.9506 47° Northeast 498 573 30,800 660 Climbing New York Center
11:30PM 39.9794 -74.8208 47° Northeast 498 573 31,600 1,140 Climbing New York Center
11:31PM 40.0714 -74.6878 48° Northeast 498 573 33,100 1,080 Climbing New York Center
11:32PM 40.1589 -74.5650 47° Northeast 479 551 33,800 840 Climbing New York Center
11:33PM 40.2750 -74.4544 36° Northeast 467 537 34,800 360 Climbing New York Center
11:36PM 40.5372 -74.3844 11° North 462 532 35,000 60 Climbing Boston Center
11:37PM 40.6983 -74.3453 10° North 481 554 35,000  Level Boston Center
11:38PM 40.8217 -74.3161 10° North 489 563 35,000  Level Boston Center
11:39PM 40.9597 -74.2817 11° North 489 563 35,000  Level Boston Center
11:40PM 41.0939 -74.2469 11° North 489 563 35,000  Level Boston Center
11:41PM 41.2403 -74.2094 11° North 489 563 35,000  Level Boston Center
11:42PM 41.3617 -74.1742 12° North 489 563 35,000  Level Boston Center
11:43PM 41.4978 -74.1392 11° North 489 563 35,000  Level Boston Center
11:44PM 41.6483 -74.1014 11° North 494 568 35,000  Level Boston Center
11:45PM 41.7844 -74.0633 12° North 494 568 35,000 -1,020 Level Boston Center
11:46PM 41.9161 -74.0303 11° North 489 563 33,000 -1,020 Descending Boston Center
11:47PM 42.0500 -73.9947 11° North 489 563 33,000  Level Boston Center
11:48PM 42.1817 -73.9614 11° North 484 557 33,000 -540 Level Boston Center
11:49PM 42.3200 -73.9200 12° North 490 564 32,000 -2,340 Descending Boston Center
11:50PM 42.4558 -73.8864 10° North 490 564 28,400 -3,060 Descending Boston Center
11:51PM 42.5625 -73.8581 11° North 490 564 25,900 -2,220 Descending Boston Center
11:52PM 42.6842 -73.7789 26° Northeast 455 524 24,000 -960 Descending Boston Center
11:53PM 42.7547 -73.6419 55° Northeast 424 488 24,000  Level Boston Center
11:54PM 42.7625 -73.4781 86° East 391 450 24,000  Level Boston Center
11:55PM 42.7681 -73.3139 87° East 406 467 24,000  Level Boston Center
11:56PM 42.7733 -73.1500 87° East 424 488 24,000 -120 Level Boston Center
11:57PM 42.7783 -72.9775 88° East 419 482 23,800 -1,140 Descending Boston Center
11:58PM 42.7811 -72.8333 88° East 392 451 21,800 -1,980 Descending Boston Center
11:59PM 42.7836 -72.6919 89° East 381 438 19,900 -1,860 Descending Boston Center
12:00AM 42.7881 -72.5786 87° East 352 405 18,100 -1,800 Descending Boston Center
12:01AM 42.7922 -72.4428 88° East 352 405 16,300 -1,860 Descending Boston Center
12:02AM 42.7964 -72.3128 87° East 346 398 14,400 -1,800 Descending Boston Center
12:03AM 42.8003 -72.1856 88° East 326 375 12,700 -1,620 Descending Boston Center
12:04AM 42.8333 -72.1003 62° Northeast 294 338 11,200 -1,680 Descending Boston Center
12:05AM 42.9061 -72.0150 41° Northeast 290 334 9,400 -1,680 Descending Boston Center
12:06AM 42.9619 -71.9464 42° Northeast 297 342 7,900 -1,560 Descending Boston Center
12:07AM 43.0283 -71.8664 41° Northeast 292 336 6,300 -1,500 Descending Boston Center
12:08AM 43.0800 -71.7978 44° Northeast 287 330 4,900 -1,320 Descending Boston Center
12:09AM 43.1211 -71.7006 60° Northeast 275 316 3,700 -960 Descending Boston Center
12:10AM 43.1497 -71.6206 64° Northeast 258 297 3,000 -540 Descending Boston Center
12:10AM 43.1500 -71.5833 89° East 244 281 3,000  Level KA90
12:11AM 43.1181 -71.5469 140° Southeast 207 238 3,000  Level Boston Center
12:12AM 43.0697 -71.5164 155° Southeast 202 232 3,000 -600 Level Boston Center
12:13AM 43.0175 -71.4858 157° South 194 223 1,900 -960 Descending Boston Center
12:14AM 42.9819 -71.4639 156° South 182 209 1,100 -840 Descending Boston Center